Tiempo atmosférico en la estación meteorológica de Badajoz Aeropuerto, Badajoz (185 m.)



Fecha
DESCASC
Temp. máxima en grados centígrados (hora)
DESCASC
Temp. mínima en grados centígrados (hora)
DESCASC
Temp. media en grados centígrados
DESCASC
Racha de viento máxima en m/sg (hora)
DESCASC
Velocidad máxima media en intervalos de 10 minutos(hora)
DESCASC
Precipitaciones diarias en mm
DESCASC
Precipitaciones de 00:00 a 06:00 en mm
DESCASC
Precipitaciones de 06:00 a 12:00 en mm
DESCASC
Precipitaciones de 12:00 a 18:00 en mm
DESCASC
Precipitaciones de 18:00 a 24:00 en mm
DESCASC
25-04-2019 18.6 (15:30) 10.2 (09:00) 14.4 13.33 (14:20) 8.61 (17:30) 2.8 0 0.6 0.6 1.6
24-04-2019 19.6 (17:20) 8.1 (01:30) 13.9 16.11 (09:30) 8.89 (09:30) 2.8 0 0.2 1 1.6
23-04-2019 14.9 (16:40) 8 (08:30) 11.4 16.39 (16:50) 10.28 (15:00) 7.6 5 1.6 1 0
22-04-2019 24.3 (16:30) 9.5 (00:00) 16.9 10.56 (18:10) 5.56 (18:10) 0 0 0 0 0
21-04-2019 23.4 (16:50) 8.8 (00:00) 16.1 9.44 (17:00) 6.11 (18:20) 0 0 0 0 0
20-04-2019 23.6 (17:40) 9.7 (00:00) 16.7 15.56 (13:50) 9.72 (15:00) 0.2 0 0.2 0 0
19-04-2019 20.5 (17:50) 10.1 (00:00) 15.3 10.83 (18:10) 6.94 (18:10) 2 0.2 0.2 0 1.6
18-04-2019 19.7 (16:40) 9.1 (00:00) 14.4 11.39 (20:40) 7.78 (20:40) 1.6 0 0 0 1.6
17-04-2019 22 (14:40) 10.4 (00:00) 16.2 13.06 (15:00) 6.94 (14:30) 1.2 0 0 1 0.2
16-04-2019 26.1 (17:10) 6.6 (00:00) 16.4 7.5 (13:20) 4.72 (18:20) 0 0 0 0 0
15-04-2019 21.9 (13:30) 13.4 (00:00) 17.6 13.33 (14:30) 8.89 (14:50) 0 0 0 0 0
14-04-2019 25.8 (16:30) 13.2 (00:00) 19.5 5.28 (16:20) 2.78 (18:00) 0 0 0 0 0
13-04-2019 24.5 (17:00) 9.4 (00:00) 16.9 8.89 (17:40) 5.83 (17:50) 0 0 0 0 0
12-04-2019 22.8 (18:20) 7 (00:00) 14.9 6.94 (17:10) 3.61 (17:10) 0 0 0 0 0
11-04-2019 21.7 (18:20) 6.8 (00:00) 14.3 9.72 (18:20) 5.83 (17:00) 0 0 0 0 0
10-04-2019 19.3 (17:10) 7.5 (00:00) 13.4 13.33 (18:10) 8.89 (18:10) 0 0 0 0 0
09-04-2019 18.1 (15:30) 8.9 (00:00) 13.5 14.44 (15:40) 10.56 (15:40) 2.6 0 1.6 1 0
08-04-2019 19.7 (17:10) 10.3 (00:00) 15 16.11 (19:00) 10 (19:00) 1.8 1.4 0.2 0 0.2
07-04-2019 15.3 (18:30) 8.9 (00:00) 12.1 8.06 (02:40) 4.17 (16:30) 2 1.2 0 0.2 0.6
06-04-2019 15.6 (18:40) 7.5 (00:00) 11.6 17.22 (15:10) 11.11 (15:10) 1.8 0.2 0 0.8 0.8
05-04-2019 14.4 (17:00) 5.4 (00:00) 9.9 16.39 (09:20) 9.17 (09:40) 6.6 4.2 1.4 0.4 0.6
04-04-2019 18.4 (16:50) 4.6 (00:00) 11.5 10.83 (22:30) 6.94 (22:30) 0.6 0 0 0 0.6
03-04-2019 19.7 (18:50) 6.9 (00:00) 13.3 9.17 (15:40) 5.83 (22:50) 0 0 0 0 0
02-04-2019 23.2 (16:50) 5.8 (00:00) 14.5 8.33 (19:50) 4.44 (19:00) 0 0 0 0 0
01-04-2019 19.9 (17:00) 11.3 (00:00) 15.6 11.67 (17:20) 7.78 (17:40) 2.2 0.8 0.2 1.2 0
31-03-2019 22.1 (19:10) 8.3 (00:00) 15.2 12.22 (19:20) 8.89 (19:20) 0 0 0 0 0
30-03-2019 23.7 (17:10) 7.8 (00:00) 15.8 11.94 (22:20) 6.67 (22:20) 0 0 0 0 0
29-03-2019 22.7 (16:50) 4.1 (00:00) 13.4 8.61 (14:10) 5.83 (10:50) 0 0 0 0 0
28-03-2019 23.2 (16:00) 4.2 (00:00) 13.7 11.67 (15:00) 7.78 (15:10) 0 0 0 0 0
27-03-2019 22.7 (16:50) 10.3 (00:00) 16.5 12.22 (14:40) 8.61 (12:20) 0 0 0 0 0

Gráficas

Temp. máximas Temp. mínimas Temp. medias Precipitaciones Rachas de viento máximas Velocidades máximas media en intervalos de 10 minutos

Datos horarios

Fecha y hora oficial Temperatura (ºC) Velocidad del viento (km/h) Dirección del viento Racha (km/h) Dirección de racha Precipitación (mm) Presión (hPa) Tendencia (hPa) Humedad (%)
2019-04-25 23:00:00 11.5 9 Oeste 18 Noroeste 0 999.6 3.5 70
2019-04-25 22:00:00 11.8 8 Oeste 30 Noroeste 0 998.3 3 68
2019-04-25 21:00:00 13.8 23 Noroeste 41 Noroeste 0 997 1.8 61
2019-04-25 20:00:00 15.8 23 Oeste 43 Noroeste 0 996.1 1.5 53
2019-04-25 19:00:00 16.8 15 Oeste 41 Noroeste 1.6 995.3 0.9 54
2019-04-25 18:00:00 15.6 21 Oeste 45 Oeste 0 995.2 1.8 61
2019-04-25 17:00:00 16.8 16 Oeste 35 Sudoeste 0 994.6 1.2 59
2019-04-25 16:00:00 14.1 21 Sudoeste 42 Sudoeste 0.4 994.4 1.2 72
2019-04-25 15:00:00 17.3 22 Oeste 48 Oeste 0.2 993.4 0.6 49
2019-04-25 14:00:00 18.1 24 Oeste 42 Oeste 0 993.4 0.9 47
2019-04-25 13:00:00 16.6 19 Oeste 40 Oeste 0 993.2 1.1 50
2019-04-25 12:00:00 14.8 10 Sudoeste 37 Oeste 0 992.8 1.5 62
2019-04-25 11:00:00 13.7 15 Oeste 27 Oeste 0 992.5 2.4 69
2019-04-25 10:00:00 11.6 12 Oeste 29 Noroeste 0.2 992.1 2.7 76
2019-04-25 09:00:00 10.2 15 Oeste 35 Oeste 0.4 991.3 2.5 86
2019-04-25 08:00:00 10.8 6 Sudoeste 19 Oeste 0 990.1 1.6 88
2019-04-25 07:00:00 11 8 Sudoeste 19 Sudoeste 0 989.4 1.3 87
2019-04-25 06:00:00 11.4 8 Sudoeste 19 Oeste 0 988.8 0.4 85
2019-04-25 05:00:00 11.8 12 Oeste 30 Sudoeste 0 988.5 0.4 81
2019-04-25 04:00:00 12.1 10 Sudoeste 24 Oeste 0 988.1 0.5 88
2019-04-25 03:00:00 11.8 8 Sudoeste 20 Sudoeste 0 988.4 1.3 91
2019-04-25 02:00:00 11.7 8 Sudoeste 23 Sudoeste 0 988.1 1.8 90
2019-04-25 01:00:00 12.1 7 Sudoeste 24 Sudoeste 0 987.6 2.8 89
2019-04-25 00:00:00 12.5 11 Oeste 37 Oeste 0.6 987.1 2.7 87
2019-04-24 23:00:00 13.7 19 Oeste 43 Sur 1 986.3 1.7 89
2019-04-24 22:00:00 14.4 16 Sudoeste 35 Sudoeste 0 984.8 0.6 85
2019-04-24 21:00:00 15.2 14 Sudoeste 39 Sudoeste 0 984.4 0.7 72
2019-04-24 20:00:00 16.1 15 Sudoeste 38 Oeste 0 984.6 1.8 71
2019-04-24 19:00:00 17 16 Sudoeste 50 Oeste 0 984.2 1.1 65
2019-04-24 18:00:00 17.8 22 Sudoeste 51 Sudoeste 0 983.7 0.3 66
2019-04-24 17:00:00 18.6 18 Sudoeste 44 Sudoeste 0 982.8 -0.4 63
2019-04-24 16:00:00 17.6 16 Sudoeste 48 Oeste 0 983.1 -0.3 77
2019-04-24 15:00:00 15.7 14 Sudoeste 48 Sudoeste 1 983.4 0.2 88
2019-04-24 14:00:00 16.4 18 Sudoeste 50 Sudoeste 0 983.2 0.5 77
2019-04-24 13:00:00 15.9 20 Sudoeste 48 Sudoeste 0 983.4 1.1 79
2019-04-24 12:00:00 15 24 Sur 54 Sur 0 983.2 1.4 81
2019-04-24 11:00:00 14.3 29 Sur 54 Sur 0 982.7 1.5 79
2019-04-24 10:00:00 13.7 32 Sur 58 Sur 0 982.3 0.9 78
2019-04-24 09:00:00 12 26 Sur 51 Sur 0.2 981.8 -0.1 82
2019-04-24 08:00:00 11.1 28 Sur 55 Sudoeste 0 981.2 -1.5 81
2019-04-24 07:00:00 10.9 24 Sur 43 Sur 0 981.4 -1.9 81
2019-04-24 06:00:00 10.5 21 Sur 35 Sudoeste 0 981.9 -2.2 82
2019-04-24 05:00:00 9.8 16 Sur 32 Sur 0 982.7 -1.7 87
2019-04-24 04:00:00 9.8 15 Sur 23 Sur 0 983.3 -1.1 84
2019-04-24 03:00:00 9 10 Sur 27 Sur 0 984.1 -0.6 85
2019-04-24 02:00:00 8.6 11 Sur 22 Sur 0 984.4 0.6 83
2019-04-24 01:00:00 8.4 9 Sudoeste 17 Sudoeste 0 984.4 1.1 82
2019-04-24 00:00:00 8.4 5 Sur 22 Sur 0 984.7 2 84
2019-04-23 23:00:00 9.1 10 Sur 18 Sudoeste 0 983.8 1.4 81
2019-04-23 22:00:00 8.9 6 Sudoeste 23 Sudoeste 0 983.3 1.5 81
2019-04-23 21:00:00 9.6 6 Sudoeste 28 Sudoeste 0 982.7 1.4 78
2019-04-23 20:00:00 11.2 14 Sudoeste 37 Oeste 0 982.4 1 63
2019-04-23 19:00:00 12.6 18 Oeste 33 Sudoeste 0 981.8 1.1 59
2019-04-23 18:00:00 12 15 Oeste 36 Oeste 0.4 981.3 1 70
2019-04-23 17:00:00 9.2 32 Oeste 59 Noroeste 0.6 981.4 0.7 78
2019-04-23 16:00:00 13.4 20 Oeste 41 Noroeste 0 980.7 0.2 60
2019-04-23 15:00:00 13.3 37 Noroeste 52 Noroeste 0 980.3 0.4 58
2019-04-23 14:00:00 12.9 22 Oeste 48 Oeste 0 980.7 1.2 61
2019-04-23 13:00:00 11.7 20 Oeste 46 Noroeste 0 980.5 1.5 70
2019-04-23 12:00:00 12.3 18 Oeste 41 Oeste 1.6 979.9 1.2 76
2019-04-23 11:00:00 11.2 10 Sudoeste 32 Sudoeste 0 979.5 1.1 73
2019-04-23 10:00:00 10.5 10 Sudoeste 31 Oeste 0 979 1 76
2019-04-23 09:00:00 9.1 8 Sudoeste 20 Sudoeste 0 978.7 0.8 88
2019-04-23 08:00:00 8.3 4 Sudoeste 14 Sudoeste 0 978.4 0.3 92
2019-04-23 07:00:00 8.9 5 Sudoeste 18 Oeste 0 978 0.1 91
2019-04-23 06:00:00 9.9 11 Oeste 21 Oeste 0 977.9 -0.2 87
2019-04-23 05:00:00 10.5 14 Oeste 30 Oeste 0.8 978.1 0.2 89
2019-04-23 04:00:00 10.6 9 Oeste 23 Oeste 1 977.9 0.1 92
2019-04-23 03:00:00 10.6 11 Oeste 42 Oeste 1.8 978.1 -0.2 90
2019-04-23 02:00:00 13.2 12 Sudoeste 30 Sudoeste 1.4 977.9 -0.8 86
2019-04-23 01:00:00 14.4 11 Sudoeste 25 Sur 0 977.8 -0.6 73
2019-04-23 00:00:00 14.7 11 Sudoeste 34 Oeste 0 978.3 0.3 70
2019-04-22 23:00:00 15.5 15 Sudoeste 35 Sudoeste 0 978.7 0.6 67
2019-04-22 22:00:00 17.3 13 Oeste 33 Oeste 0 978.4 -0.3 61
2019-04-22 21:00:00 19.2 12 Sudoeste 26 Oeste 0 978 -0.9 51
2019-04-22 20:00:00 20.5 13 Oeste 27 Oeste 0 978.1 -1.3 42
2019-04-22 19:00:00 21.8 16 Oeste 38 Sudoeste 0 978.7 -1.2 35
2019-04-22 18:00:00 23.3 20 Oeste 37 Noroeste 0 978.9 -1.4 31
2019-04-22 17:00:00 23.9 17 Oeste 37 Oeste 0 979.4 -1.7 28
2019-04-22 16:00:00 24.1 17 Oeste 32 Oeste 0 979.9 -2.1 28
2019-04-22 15:00:00 23.6 16 Oeste 31 Oeste 0 980.3 -2.3 29
2019-04-22 14:00:00 22.5 9 Oeste 23 Oeste 0 981.1 -2 42
2019-04-22 13:00:00 21.4 8 Oeste 23 Oeste 0 982 -1.2 46
2019-04-22 12:00:00 19.2 4 Oeste 14 Sudoeste 0 982.6 -0.7 51
2019-04-22 11:00:00 17.7 7 Sudoeste 14 Oeste 0 983.1 0.1 53
2019-04-22 10:00:00 14.1 3 Sur 5 Sur 0 983.2 0.4 74
2019-04-22 09:00:00 11 0 Calma 4 Sudoeste 0 983.3 0.2 85
2019-04-22 08:00:00 9.5 0 Calma 6 Noroeste 0 983 -1 88
2019-04-22 07:00:00 10.8 2 Sur 5 Sudeste 0 982.8 -1.8 84
2019-04-22 06:00:00 10.9 5 Sudeste 7 Este 0 983.1 -2.3 82
2019-04-22 05:00:00 12 4 Oeste 7 Oeste 0 984 -2.1 78
2019-04-22 04:00:00 12.7 5 Oeste 8 Oeste 0 984.6 -1.5 77
2019-04-22 03:00:00 13 2 Noroeste 3 Noroeste 0 985.4 -1 70
2019-04-22 02:00:00 13.4 3 Este 4 Sudeste 0 986.1 -0.4 67
2019-04-22 01:00:00 13.7 2 Nordeste 4 Sudeste 0 986.1 -0.1 65
2019-04-22 00:00:00 15.2 3 Noroeste 5 Oeste 0 986.4 0.5 57
2019-04-21 23:00:00 16.5 2 Oeste 8 Sudeste 0 986.5 0.8 53
2019-04-21 22:00:00 17.5 5 Sudeste 18 Este 0 986.2 0.5 46
2019-04-21 21:00:00 18.9 17 Este 27 Este 0 985.9 0.1 41
2019-04-21 20:00:00 20.2 18 Este 27 Este 0 985.7 -0.6 38
2019-04-21 19:00:00 21.2 18 Nordeste 31 Nordeste 0 985.7 -1.3 34
2019-04-21 18:00:00 21.9 14 Norte 34 Nordeste 0 985.8 -1.6 32
2019-04-21 17:00:00 22 20 Norte 34 Norte 0 986.3 -1.8 32
2019-04-21 16:00:00 21.4 19 Nordeste 33 Norte 0 987 -2 31
2019-04-21 15:00:00 22 18 Nordeste 28 Nordeste 0 987.4 -2.2 34
2019-04-21 14:00:00 21.2 14 Nordeste 32 Nordeste 0 988.1 -2 37
2019-04-21 13:00:00 19.9 9 Nordeste 24 Este 0 989 -1.6 40
2019-04-21 12:00:00 18.4 14 Este 26 Nordeste 0 989.6 -1.1 42
2019-04-21 11:00:00 16.3 13 Nordeste 20 Nordeste 0 990.1 -0.7 55
2019-04-21 10:00:00 13 4 Norte 8 Norte 0 990.6 -0.2 71
2019-04-21 09:00:00 11 4 Este 5 Este 0 990.7 -0.3 81
2019-04-21 08:00:00 8.9 3 Norte 9 Noroeste 0 990.8 -0.7 85
2019-04-21 07:00:00 9.3 5 Noroeste 8 Noroeste 0 990.8 -1 83
2019-04-21 06:00:00 10.2 5 Oeste 8 Este 0 991 -1.6 83
2019-04-21 05:00:00 10.1 7 Norte 13 Nordeste 0 991.5 -1.5 83
2019-04-21 04:00:00 10.8 7 Norte 10 Norte 0 991.8 -1.4 82
2019-04-21 03:00:00 11.8 5 Oeste 7 Noroeste 0 992.6 -0.7 77
2019-04-21 02:00:00 12.1 6 Norte 17 Este 0 993 -0.3 74
2019-04-21 01:00:00 13.7 13 Este 24 Este 0 993.2 0.1 66
2019-04-21 00:00:00 14.4 19 Este 30 Este 0 993.3 0.9 62
2019-04-20 23:00:00 15.3 12 Sudeste 33 Este 0 993.3 1.7 57
2019-04-20 22:00:00 16.2 22 Este 40 Este 0 993.1 1.7 53
2019-04-20 21:00:00 18.2 24 Este 39 Sudeste 0 992.4 1 51
2019-04-20 20:00:00 19.6 14 Sudeste 34 Este 0 991.6 -0.4 51
2019-04-20 19:00:00 21.6 27 Este 36 Este 0 991.4 -1.2 43
2019-04-20 18:00:00 22.8 17 Este 35 Este 0 991.4 -1.4 40
2019-04-20 17:00:00 23.4 24 Este 39 Este 0 992 -1 40
2019-04-20 16:00:00 21.6 25 Este 48 Este 0 992.6 -0.7 44
2019-04-20 15:00:00 22 35 Este 50 Este 0 992.8 -0.6 40
2019-04-20 14:00:00 20.4 31 Este 56 Nordeste 0 993 -0.7 43
2019-04-20 13:00:00 20.7 32 Nordeste 45 Nordeste 0 993.3 -0.5 44
2019-04-20 12:00:00 17.5 18 Nordeste 28 Nordeste 0 993.4 -0.1 64
2019-04-20 11:00:00 15.1 17 Nordeste 21 Nordeste 0 993.7 -0.3 78
2019-04-20 10:00:00 12.4 6 Nordeste 9 Nordeste 0.2 993.8 -0.1 91
2019-04-20 09:00:00 10.9 0 Calma 4 Oeste 0 993.5 -0.4 92
2019-04-20 08:00:00 10.2 3 Nordeste 7 Norte 0 994 -0.6 94
2019-04-20 07:00:00 9.8 4 Nordeste 9 Nordeste 0 993.9 -0.8 93
2019-04-20 06:00:00 9.8 9 Nordeste 11 Este 0 993.9 -0.8 92
2019-04-20 05:00:00 10.9 5 Este 17 Nordeste 0 994.6 -0.6 87
2019-04-20 04:00:00 11.2 12 Nordeste 24 Nordeste 0 994.7 -0.7 87
2019-04-20 03:00:00 11.5 17 Nordeste 23 Nordeste 0 994.7 -0.8 87
2019-04-20 02:00:00 11.9 14 Nordeste 23 Nordeste 0 995.2 -0.3 88
2019-04-20 01:00:00 12.7 12 Nordeste 19 Nordeste 0 995.4 0.6 87
2019-04-20 00:00:00 13 13 Este 23 Este 0 995.5 1.7 87
2019-04-19 23:00:00 13.4 9 Este 25 Este 0.2 995.5 2.9 86
2019-04-19 22:00:00 13.8 16 Este 23 Este 0 994.8 2.2 86
2019-04-19 21:00:00 14.2 17 Este 33 Este 1.4 993.8 2 83
2019-04-19 20:00:00 17.7 8 Norte 12 Norte 0 992.6 0.8 64
2019-04-19 19:00:00 16.3 8 Norte 39 Norte 0 992.6 0 67
2019-04-19 18:00:00 18.3 23 Norte 33 Norte 0 991.8 -0.9 53
2019-04-19 17:00:00 19.4 8 Noroeste 18 Norte 0 991.8 -1.5 49
2019-04-19 16:00:00 18.2 9 Norte 17 Norte 0 992.6 -1.3 54
2019-04-19 15:00:00 17.1 7 Norte 18 Nordeste 0 992.7 -1.1 67
2019-04-19 14:00:00 15.6 8 Norte 16 Norte 0 993.3 0.1 74
2019-04-19 13:00:00 14 8 Norte 14 Noroeste 0 993.9 1.2 84
2019-04-19 12:00:00 13.3 6 Noroeste 13 Noroeste 0.2 993.8 1.3 86
2019-04-19 11:00:00 12.4 12 Oeste 17 Noroeste 0 993.2 1.1 90
2019-04-19 10:00:00 12.5 6 Oeste 14 Oeste 0 992.7 1.2 90
2019-04-19 09:00:00 11.2 3 Sur 7 Sudoeste 0 992.5 1.1 92
2019-04-19 08:00:00 10.2 5 Sudoeste 10 Oeste 0 992.1 0.5 93
2019-04-19 07:00:00 10.3 5 Sudoeste 8 Sudoeste 0 991.5 -0.2 92
2019-04-19 06:00:00 11.1 4 Sudoeste 10 Oeste 0 991.4 -0.4 90
2019-04-19 05:00:00 11.3 4 Sudoeste 14 Sudoeste 0 991.6 -0.7 89
2019-04-19 04:00:00 11.3 6 Oeste 14 Oeste 0 991.7 -0.8 89
2019-04-19 03:00:00 11.2 3 Sudoeste 10 Sudoeste 0 991.8 -0.7 89
2019-04-19 02:00:00 12 4 Sudoeste 8 Sudoeste 0 992.3 -0.2 88
2019-04-19 01:00:00 12.2 4 Sudoeste 8 Sudoeste 0.2 992.5 0.9 88
2019-04-19 00:00:00 12 5 Sur 14 Sur 0.4 992.5 1.5 89
2019-04-18 23:00:00 12.5 8 Sur 22 Noroeste 1 992.5 2.6 83
2019-04-18 22:00:00 13 15 Norte 32 Noroeste 0 991.6 1.9 75
2019-04-18 21:00:00 13.2 24 Noroeste 41 Noroeste 0 991 1.7 72
2019-04-18 20:00:00 15.6 13 Oeste 34 Noroeste 0.2 989.9 0.5 69
2019-04-18 19:00:00 18.2 15 Oeste 25 Oeste 0 989.7 -0.4 48
2019-04-18 18:00:00 18.3 10 Oeste 20 Oeste 0 989.3 -1.3 51
2019-04-18 17:00:00 17.9 13 Oeste 29 Noroeste 0 989.4 -1.4 62
2019-04-18 16:00:00 18.9 10 Noroeste 22 Noroeste 0 990.1 -1.2 50
2019-04-18 15:00:00 17.3 8 Noroeste 19 Noroeste 0 990.6 -0.9 56
2019-04-18 14:00:00 17.5 8 Oeste 18 Noroeste 0 990.8 -0.8 54
2019-04-18 13:00:00 15.9 9 Oeste 17 Oeste 0 991.3 0 64
2019-04-18 12:00:00 14.8 3 Sudoeste 12 Noroeste 0 991.5 0.3 72
2019-04-18 11:00:00 13.8 8 Oeste 19 Oeste 0 991.6 0.9 81
2019-04-18 10:00:00 14 9 Oeste 19 Oeste 0 991.3 1 81
2019-04-18 09:00:00 12 4 Sudeste 8 Sur 0 991.2 1 89
2019-04-18 08:00:00 10.1 3 Este 6 Nordeste 0 990.7 0.4 94
2019-04-18 07:00:00 9.9 3 Este 7 Este 0 990.3 -0.1 94
2019-04-18 06:00:00 9.8 4 Sudeste 8 Este 0 990.2 -0.9 94
2019-04-18 05:00:00 9.6 4 Sudeste 12 Este 0 990.3 -1.3 95
2019-04-18 04:00:00 9.5 6 Sudeste 10 Este 0 990.4 -0.9 93
2019-04-18 03:00:00 10.4 4 Este 10 Este 0 991.1 0.2 89
2019-04-18 02:00:00 11.2 2 Este 20 Sudoeste 0 991.6 1.2 87
2019-04-18 01:00:00 11.6 8 Sur 14 Sur 0 991.3 1.6 86
2019-04-18 00:00:00 12.2 8 Sur 26 Sur 0 990.9 2 84
2019-04-17 23:00:00 13 17 Sur 27 Sur 0 990.4 1.9 78
2019-04-17 22:00:00 13.3 9 Sur 23 Sur 0 989.7 2.2 76
2019-04-17 21:00:00 13.5 10 Sudoeste 27 Sur 0 988.9 1.1 76
2019-04-17 20:00:00 14.3 14 Sur 26 Sur 0.2 988.5 0.7 80
2019-04-17 19:00:00 14.8 12 Sur 22 Sur 0 987.5 -0.3 78
2019-04-17 18:00:00 14.3 12 Sur 26 Sudoeste 0.2 987.8 1.4 80
2019-04-17 17:00:00 14.2 13 Sudoeste 33 Sudoeste 0.8 987.8 0.8 80
2019-04-17 16:00:00 15.9 18 Oeste 44 Sur 0 987.8 0 73
2019-04-17 15:00:00 21.3 25 Sur 47 Sur 0 986.4 -1.8 44
2019-04-17 14:00:00 20.6 21 Sur 40 Sur 0 987 -1.8 49
2019-04-17 13:00:00 19.8 22 Sur 38 Sudeste 0 987.8 -0.9 51
2019-04-17 12:00:00 18.1 13 Sudeste 25 Sudeste 0 988.2 -0.5 53
2019-04-17 11:00:00 16 12 Este 17 Este 0 988.8 0.5 58
2019-04-17 10:00:00 14.3 14 Este 19 Este 0 988.7 0.5 62
2019-04-17 09:00:00 12 6 Sudeste 14 Este 0 988.7 0.1 72
2019-04-17 08:00:00 10.6 9 Sudeste 14 Sudeste 0 988.3 -0.6 76
2019-04-17 07:00:00 10.9 5 Este 7 Este 0 988.2 -0.9 71
2019-04-17 06:00:00 11.5 3 Sudeste 6 Sur 0 988.6 -0.6 65
2019-04-17 05:00:00 12.9 3 Sudoeste 14 Sudoeste 0 988.9 -0.9 59
2019-04-17 04:00:00 14 5 Sudoeste 15 Sur 0 989.1 -0.6 55
2019-04-17 03:00:00 14.9 6 Sudoeste 15 Sudoeste 0 989.2 -0.7 55
2019-04-17 02:00:00 15.6 4 Sudoeste 9 Sudoeste 0 989.8 -0.4 52
2019-04-17 01:00:00 16.6 7 Sur 13 Sudoeste 0 989.7 0.2 46
2019-04-17 00:00:00 17.2 6 Sudoeste 12 Sudoeste 0 989.9 0.7 38
2019-04-16 23:00:00 18.2 3 Sudoeste 12 Sudoeste 0 990.2 1.3 44
2019-04-16 22:00:00 19.7 4 Sudoeste 13 Oeste 0 989.5 0.2 41
2019-04-16 21:00:00 22.5 9 Sur 19 Sur 0 989.2 -0.6 34
2019-04-16 20:00:00 24.7 12 Sur 23 Sudoeste 0 988.9 -1.8 28
2019-04-16 19:00:00 25.6 11 Sur 26 Sur 0 989.3 -2.7 23
2019-04-16 18:00:00 25.9 11 Sur 26 Sur 0 989.8 -3.5 23
2019-04-16 17:00:00 26 11 Sudeste 23 Sudeste 0 990.7 -3.7 24
2019-04-16 16:00:00 25.2 10 Sudeste 23 Sudeste 0 992 -3.2 26
2019-04-16 15:00:00 24.3 9 Sudeste 25 Sudeste 0 993.3 -2.8 25
2019-04-16 14:00:00 22.6 9 Sudeste 27 Este 0 994.4 -2 32
2019-04-16 13:00:00 20.7 10 Sudeste 22 Sur 0 995.2 -1.6 46
2019-04-16 12:00:00 18 6 Este 15 Este 0 996.1 -0.5 58
2019-04-16 11:00:00 15.1 3 Sudeste 11 Nordeste 0 996.4 0 69
2019-04-16 10:00:00 11.8 4 Este 8 Este 0 996.8 0.6 82
2019-04-16 09:00:00 8.6 3 Este 6 Este 0 996.6 -0.2 93
2019-04-16 08:00:00 6.6 3 Este 10 Este 0 996.4 -0.4 94
2019-04-16 07:00:00 8.1 4 Oeste 8 Oeste 0 996.2 -0.7 91
2019-04-16 06:00:00 8.4 3 Oeste 6 Sur 0 996.8 -0.6 90
2019-04-16 05:00:00 9.6 3 Sur 7 Oeste 0 996.8 -0.6 87
2019-04-16 04:00:00 10.4 4 Sudoeste 11 Oeste 0 996.9 0.1 86
2019-04-16 03:00:00 11.1 4 Sudoeste 15 Oeste 0 997.4 0.9 83
2019-04-16 02:00:00 12.2 8 Oeste 15 Oeste 0 997.4 1.5 81
2019-04-16 01:00:00 12.9 8 Oeste 15 Noroeste 0 996.8 1.7 77
2019-04-16 00:00:00 14.2 7 Oeste 16 Oeste 0 996.5 2.2 71
2019-04-15 23:00:00 15 7 Oeste 20 Oeste 0 995.9 2.4 64
2019-04-15 22:00:00 16.6 8 Oeste 19 Oeste 0 995.1 2.1 56
2019-04-15 21:00:00 18 14 Oeste 33 Noroeste 0 994.3 1.4 52
2019-04-15 20:00:00 19.8 21 Oeste 34 Noroeste 0 993.5 0.5 49
2019-04-15 19:00:00 21.6 21 Oeste 33 Oeste 0 993 0.2 38
2019-04-15 18:00:00 21.2 15 Oeste 30 Oeste 0 992.9 0.1 42
2019-04-15 17:00:00 20.2 17 Oeste 36 Oeste 0 993 1 50
2019-04-15 16:00:00 18.8 24 Oeste 37 Oeste 0 992.8 0.4 58
2019-04-15 15:00:00 17.5 24 Oeste 48 Oeste 0 992.8 0.5 63
2019-04-15 14:00:00 21.4 14 Oeste 36 Noroeste 0 992 -0.1 44
2019-04-15 13:00:00 20.2 13 Oeste 31 Oeste 0 992.4 0.7 46
2019-04-15 12:00:00 19.4 11 Oeste 32 Noroeste 0 992.3 0.7 56
2019-04-15 11:00:00 18.7 12 Oeste 23 Oeste 0 992.1 1.4 63
2019-04-15 10:00:00 16.3 6 Sudoeste 16 Sudoeste 0 991.7 1.8 79
2019-04-15 09:00:00 14.1 6 Oeste 12 Oeste 0 991.6 1.5 89
2019-04-15 08:00:00 13.8 4 Sudoeste 7 Oeste 0 990.7 0.1 91
2019-04-15 07:00:00 13.4 2 Sudeste 7 Oeste 0 989.9 -1.5 90
2019-04-15 06:00:00 13.7 3 Sur 5 Sur 0 990.1 -1.4 89
2019-04-15 05:00:00 13.6 0 Calma 9 Oeste 0 990.6 -1.7 90
2019-04-15 04:00:00 14.6 5 Oeste 14 Noroeste 0 991.4 -1.4 86
2019-04-15 03:00:00 15.3 4 Noroeste 9 Norte 0 991.5 -1.4 83
2019-04-15 02:00:00 16.5 2 Nordeste 7 Nordeste 0 992.3 -0.5 77
2019-04-15 01:00:00 18.7 3 Sudoeste 8 Sur 0 992.8 0 71
2019-04-15 00:00:00 18.7 5 Este 10 Este 0 992.9 0.2 70
2019-04-14 23:00:00 20 2 Este 5 Oeste 0 992.8 0 65
2019-04-14 22:00:00 21.4 3 Sudoeste 8 Oeste 0 992.8 -0.3 61
2019-04-14 21:00:00 22.9 3 Oeste 9 Noroeste 0 992.7 -0.8 53
2019-04-14 20:00:00 25.1 5 Sudoeste 9 Oeste 0 992.8 -1.3 45
2019-04-14 19:00:00 25.3 4 Oeste 14 Noroeste 0 993.1 -1.9 45
2019-04-14 18:00:00 24.9 10 Oeste 17 Noroeste 0 993.5 -2.2 47
2019-04-14 17:00:00 25.6 6 Sudoeste 19 Este 0 994.1 -2.1 45
2019-04-14 16:00:00 24.8 7 Noroeste 15 Oeste 0 995 -1.8 48
2019-04-14 15:00:00 24 4 Sur 13 Norte 0 995.7 -1.6 50
2019-04-14 14:00:00 22.5 5 Sudoeste 13 Sur 0 996.2 -0.9 54
2019-04-14 13:00:00 20.6 8 Norte 14 Sudoeste 0 996.8 -0.4 61
2019-04-14 12:00:00 19 6 Noroeste 14 Oeste 0 997.3 0.3 69
2019-04-14 11:00:00 18.5 6 Oeste 10 Oeste 0 997.1 0.3 71
2019-04-14 10:00:00 16.2 3 Oeste 7 Oeste 0 997.2 0.7 83
2019-04-14 09:00:00 14.5 3 Oeste 7 Oeste 0 997 0.4 89
2019-04-14 08:00:00 13.8 3 Sudoeste 8 Oeste 0 996.8 -0.5 91
2019-04-14 07:00:00 13.5 4 Sur 8 Sudoeste 0 996.5 -1.2 91
2019-04-14 06:00:00 13.2 5 Sudoeste 11 Sudoeste 0 996.6 -1.4 92
2019-04-14 05:00:00 13.5 5 Sudoeste 10 Sudoeste 0 997.3 -1 91
2019-04-14 04:00:00 13.4 4 Sudoeste 9 Oeste 0 997.7 -0.6 91
2019-04-14 03:00:00 14.2 3 Sudoeste 8 Oeste 0 998 -0.3 89
2019-04-14 02:00:00 15.1 5 Oeste 10 Sudoeste 0 998.3 -0.1 84
2019-04-14 01:00:00 15.8 6 Oeste 14 Oeste 0 998.3 0.5 80
2019-04-14 00:00:00 16.1 10 Oeste 18 Noroeste 0 998.3 1.1 79
2019-04-13 23:00:00 16.7 12 Oeste 20 Oeste 0 998.4 1.6 74
2019-04-13 22:00:00 17.8 13 Oeste 19 Noroeste 0 997.8 1.2 67
2019-04-13 21:00:00 19.8 15 Oeste 28 Oeste 0 997.2 0.7 54
2019-04-13 20:00:00 21.4 19 Noroeste 27 Noroeste 0 996.8 0.5 43
2019-04-13 19:00:00 22.8 9 Noroeste 18 Oeste 0 996.6 -0.5 31
2019-04-13 18:00:00 22.2 12 Oeste 32 Oeste 0 996.5 -0.9 33
2019-04-13 17:00:00 24.2 9 Sudoeste 23 Oeste 0 996.3 -1.3 26
2019-04-13 16:00:00 23.9 7 Sudoeste 24 Oeste 0 997.1 -0.9 24
2019-04-13 15:00:00 23.2 11 Oeste 24 Oeste 0 997.4 -0.9 21
2019-04-13 14:00:00 22.4 8 Oeste 17 Noroeste 0 997.6 -0.8 23
2019-04-13 13:00:00 20.8 6 Sudoeste 14 Sudoeste 0 998 -0.3 29
2019-04-13 12:00:00 18.5 6 Oeste 15 Noroeste 0 998.3 0 50
2019-04-13 11:00:00 15.3 6 Oeste 11 Oeste 0 998.4 0.7 63
2019-04-13 10:00:00 11.4 5 Noroeste 7 Noroeste 0 998.3 1 80
2019-04-13 09:00:00 10 3 Oeste 5 Oeste 0 998.3 1 81
2019-04-13 08:00:00 9.6 3 Sudoeste 8 Oeste 0 997.7 0.7 82
2019-04-13 07:00:00 9.8 4 Sudoeste 8 Sudoeste 0 997.3 0.3 81
2019-04-13 06:00:00 10.4 4 Sudoeste 8 Sudoeste 0 997.3 0 81
2019-04-13 05:00:00 10.8 5 Sur 9 Sudoeste 0 997 -0.4 81
2019-04-13 04:00:00 11.5 4 Sudoeste 11 Oeste 0 997 0 79
2019-04-13 03:00:00 12.4 7 Oeste 12 Oeste 0 997.3 0.6 74
2019-04-13 02:00:00 12.9 8 Oeste 14 Oeste 0 997.4 0.9 65
2019-04-13 01:00:00 13.1 5 Sudoeste 9 Oeste 0 997 1.2 58
2019-04-13 00:00:00 14.2 3 Sudoeste 8 Oeste 0 996.7 1.5 52
2019-04-12 23:00:00 15.5 5 Sudoeste 10 Sudoeste 0 996.5 1.3 48
2019-04-12 22:00:00 17.3 6 Sudoeste 13 Oeste 0 995.8 0.6 42
2019-04-12 21:00:00 19.7 6 Oeste 14 Noroeste 0 995.2 -0.2 28
2019-04-12 20:00:00 21.7 8 Oeste 19 Noroeste 0 995.2 -0.4 25
2019-04-12 19:00:00 22.4 9 Noroeste 18 Oeste 0 995.2 -1.1 25
2019-04-12 18:00:00 22.5 12 Oeste 25 Noroeste 0 995.4 -1.6 26
2019-04-12 17:00:00 22.4 7 Norte 22 Este 0 995.6 -1.8 26
2019-04-12 16:00:00 21.9 8 Nordeste 20 Nordeste 0 996.3 -1.6 26
2019-04-12 15:00:00 20.8 7 Norte 21 Este 0 997 -1.3 29
2019-04-12 14:00:00 19.6 5 Este 17 Nordeste 0 997.4 -0.8 36
2019-04-12 13:00:00 18.2 9 Nordeste 18 Este 0 997.9 0 41
2019-04-12 12:00:00 16 12 Este 19 Este 0 998.3 0.5 48
2019-04-12 11:00:00 13.2 6 Este 12 Nordeste 0 998.2 0.7 60
2019-04-12 10:00:00 9.8 5 Noroeste 11 Noroeste 0 997.9 0.9 77
2019-04-12 09:00:00 8 5 Oeste 11 Sudoeste 0 997.8 0.8 86
2019-04-12 08:00:00 7 7 Oeste 11 Oeste 0 997.5 0.5 90
2019-04-12 07:00:00 7.3 7 Oeste 11 Oeste 0 997 0.1 88
2019-04-12 06:00:00 7.3 5 Sudeste 7 Sudeste 0 997 -0.2 86
2019-04-12 05:00:00 8.6 4 Sudoeste 13 Sudoeste 0 997 -0.2 83
2019-04-12 04:00:00 9.4 7 Oeste 13 Oeste 0 996.9 -0.4 81
2019-04-12 03:00:00 10.2 8 Oeste 15 Oeste 0 997.2 0 80
2019-04-12 02:00:00 11.1 5 Oeste 12 Oeste 0 997.2 0.2 77
2019-04-12 01:00:00 11.4 9 Oeste 17 Oeste 0 997.3 0.8 77
2019-04-12 00:00:00 12.8 11 Oeste 20 Oeste 0 997.2 1.2 72
2019-04-11 23:00:00 14.5 11 Oeste 17 Oeste 0 997 1.3 60
2019-04-11 22:00:00 15.8 7 Oeste 15 Oeste 0 996.5 0.7 45
2019-04-11 21:00:00 17.1 11 Noroeste 27 Norte 0 996 0.2 34
2019-04-11 20:00:00 19.9 17 Noroeste 30 Noroeste 0 995.7 -0.2 27
2019-04-11 19:00:00 20.4 18 Noroeste 35 Noroeste 0 995.8 -0.7 28
2019-04-11 18:00:00 21.4 15 Oeste 29 Noroeste 0 995.8 -1.2 28
2019-04-11 17:00:00 21.4 21 Noroeste 33 Noroeste 0 995.9 -1.6 28
2019-04-11 16:00:00 20.5 9 Noroeste 26 Noroeste 0 996.5 -1.8 35
2019-04-11 15:00:00 19.7 11 Noroeste 24 Noroeste 0 997 -1.5 37
2019-04-11 14:00:00 19 4 Noroeste 20 Norte 0 997.5 -1 43
2019-04-11 13:00:00 16.9 8 Oeste 17 Noroeste 0 998.3 0 49
2019-04-11 12:00:00 14.7 8 Oeste 17 Noroeste 0 998.5 0.3 61
2019-04-11 11:00:00 12.5 8 Noroeste 15 Noroeste 0 998.5 0.8 71
2019-04-11 10:00:00 10.1 11 Oeste 16 Noroeste 0 998.3 0.9 82
2019-04-11 09:00:00 8.1 6 Oeste 11 Oeste 0 998.2 0.6 88
2019-04-11 08:00:00 6.8 6 Sudoeste 12 Oeste 0 997.7 0.1 91
2019-04-11 07:00:00 7 4 Sudoeste 13 Sudoeste 0 997.4 0.3 91
2019-04-11 06:00:00 7 5 Sudoeste 15 Oeste 0 997.6 0.2 91
2019-04-11 05:00:00 7.6 5 Sudoeste 14 Oeste 0 997.6 0.2 89
2019-04-11 04:00:00 8.6 8 Sudoeste 17 Oeste 0 997.1 -0.2 85
2019-04-11 03:00:00 9 10 Oeste 16 Oeste 0 997.4 0.1 85
2019-04-11 02:00:00 9.6 8 Oeste 15 Oeste 0 997.4 0.2 81
2019-04-11 01:00:00 10.3 7 Oeste 17 Oeste 0 997.3 1 78
2019-04-11 00:00:00 11.1 10 Oeste 27 Noroeste 0 997.3 1.8 75
2019-04-10 23:00:00 12.4 21 Noroeste 35 Oeste 0 997.2 2.2 68
2019-04-10 22:00:00 13.6 21 Oeste 33 Noroeste 0 996.3 1.5 61
2019-04-10 21:00:00 15 22 Oeste 39 Oeste 0 995.5 0.9 55
2019-04-10 20:00:00 16.8 30 Noroeste 44 Noroeste 0 995 0.2 48
2019-04-10 19:00:00 18 27 Oeste 48 Noroeste 0 994.8 -0.9 46
2019-04-10 18:00:00 18.5 28 Noroeste 42 Noroeste 0 994.6 -1.5 43
2019-04-10 17:00:00 19.1 24 Noroeste 42 Noroeste 0 994.8 -1.6 39
2019-04-10 16:00:00 18.9 27 Noroeste 42 Noroeste 0 995.7 -1.2 41
2019-04-10 15:00:00 18 26 Noroeste 42 Oeste 0 996.1 -1 45
2019-04-10 14:00:00 16.9 19 Oeste 37 Noroeste 0 996.4 -0.7 50
2019-04-10 13:00:00 15.7 27 Noroeste 40 Noroeste 0 996.9 0 53
2019-04-10 12:00:00 14.6 25 Noroeste 40 Noroeste 0 997.1 0.4 64
2019-04-10 11:00:00 12.1 21 Oeste 32 Noroeste 0 997.1 0.7 77
2019-04-10 10:00:00 10.6 16 Oeste 27 Noroeste 0 996.9 0.9 87
2019-04-10 09:00:00 8.4 9 Oeste 21 Oeste 0 996.7 0.4 93
2019-04-10 08:00:00 7.5 10 Oeste 18 Oeste 0 996.4 0.4 94
2019-04-10 07:00:00 7.8 4 Sudoeste 12 Sudoeste 0 996 -0.4 94
2019-04-10 06:00:00 7.9 4 Sudoeste 12 Sudoeste 0 996.3 -0.3 93
2019-04-10 05:00:00 8.7 4 Sudoeste 23 Noroeste 0 996 -0.7 90
2019-04-10 04:00:00 9.4 9 Oeste 24 Oeste 0 996.4 -0.4 88
2019-04-10 03:00:00 8.8 6 Oeste 18 Oeste 0 996.6 -0.1 89
2019-04-10 02:00:00 9.1 4 Sudoeste 10 Sur 0 996.7 0.1 87
2019-04-10 01:00:00 9.7 2 Norte 17 Oeste 0 996.8 1.1 83
2019-04-10 00:00:00 10.4 10 Oeste 20 Oeste 0 996.7 1.6 80
2019-04-09 23:00:00 10.7 14 Oeste 21 Oeste 0 996.6 2.1 78
2019-04-09 22:00:00 11.9 13 Oeste 32 Noroeste 0 995.7 1.7 71
2019-04-09 21:00:00 13.5 21 Oeste 40 Noroeste 0 995.1 1.1 61
2019-04-09 20:00:00 15.3 23 Oeste 45 Noroeste 0 994.5 0 57
2019-04-09 19:00:00 16.7 23 Oeste 40 Noroeste 0 994 -0.5 56
2019-04-09 18:00:00 16 25 Noroeste 47 Noroeste 0 994 -0.5 60
2019-04-09 17:00:00 13 23 Oeste 51 Oeste 1 994.5 -0.4 76
2019-04-09 16:00:00 16.4 26 Noroeste 52 Noroeste 0 994.5 -0.6 57
2019-04-09 15:00:00 17.1 20 Oeste 43 Noroeste 0 994.5 -0.9 54
2019-04-09 14:00:00 14.9 27 Noroeste 42 Noroeste 0 994.9 -0.4 65
2019-04-09 13:00:00 14.8 17 Oeste 36 Oeste 0 995.1 -0.2 66
2019-04-09 12:00:00 12.2 13 Oeste 41 Oeste 0.4 995.4 0.3 82
2019-04-09 11:00:00 13 12 Sudoeste 26 Oeste 0.2 995.3 0.7 83
2019-04-09 10:00:00 10.6 9 Sudoeste 32 Oeste 1 995.3 0.8 88
2019-04-09 09:00:00 10 9 Sudoeste 21 Sudoeste 0 995.1 0.5 92
2019-04-09 08:00:00 9.4 7 Sudoeste 16 Sudoeste 0 994.6 -0.1 94
2019-04-09 07:00:00 9.1 7 Sudoeste 19 Sudoeste 0 994.5 -0.4 93
2019-04-09 06:00:00 9 6 Sudoeste 17 Sudoeste 0 994.6 -0.4 93
2019-04-09 05:00:00 9.2 6 Sudoeste 17 Sudoeste 0 994.7 -0.4 91
2019-04-09 04:00:00 9 5 Sudoeste 14 Sudoeste 0 994.9 0 90
2019-04-09 03:00:00 9.1 5 Sudoeste 14 Sudoeste 0 995 0.2 88
2019-04-09 02:00:00 9 5 Sudoeste 15 Sudoeste 0 995.1 0.2 87
2019-04-09 01:00:00 9.5 6 Sudoeste 16 Sudoeste 0 994.9 0.5 84
2019-04-09 00:00:00 10.3 4 Sudoeste 11 Sudoeste 0 994.8 0.9 88
2019-04-08 23:00:00 11.5 4 Sudoeste 14 Sudoeste 0 994.9 1.2 81
2019-04-08 22:00:00 11.6 6 Oeste 15 Oeste 0 994.4 1.1 80
2019-04-08 21:00:00 11.6 9 Oeste 25 Oeste 0 993.9 1.5 82
2019-04-08 20:00:00 11.8 17 Oeste 49 Noroeste 0.2 993.7 1.2 80
2019-04-08 19:00:00 13.2 36 Oeste 58 Noroeste 0 993.3 0.5 70
2019-04-08 18:00:00 17.4 20 Noroeste 30 Noroeste 0 992.4 -1.3 48
2019-04-08 17:00:00 19.5 10 Oeste 30 Sudoeste 0 992.5 -1.4 36
2019-04-08 16:00:00 19.4 14 Oeste 24 Oeste 0 992.8 -1.3 37
2019-04-08 15:00:00 18.3 14 Oeste 29 Noroeste 0 993.7 -0.6 40
2019-04-08 14:00:00 17.5 12 Oeste 30 Oeste 0 993.9 0.1 42
2019-04-08 13:00:00 16.4 15 Oeste 30 Oeste 0 994.1 0.5 57
2019-04-08 12:00:00 14.4 11 Oeste 23 Oeste 0 994.3 0.8 69
2019-04-08 11:00:00 14.2 10 Oeste 19 Oeste 0 993.8 1.3 82
2019-04-08 10:00:00 13.4 5 Sudoeste 11 Sudoeste 0 993.6 1.3 91
2019-04-08 09:00:00 12 4 Sudoeste 13 Sudoeste 0 993.5 1.4 95
2019-04-08 08:00:00 11.8 4 Sudoeste 13 Oeste 0 992.5 0.8 95
2019-04-08 07:00:00 12.4 10 Oeste 22 Sudoeste 0.2 992.3 0.2 92
2019-04-08 06:00:00 12.8 8 Sudoeste 28 Sudoeste 0 992.1 -0.3 94
2019-04-08 05:00:00 12.5 17 Sur 30 Sur 1.2 991.7 -1 92
2019-04-08 04:00:00 13 11 Sudoeste 27 Sudoeste 0.2 992.1 -0.8 87
2019-04-08 03:00:00 12.9 8 Sudoeste 23 Sudoeste 0 992.4 -0.5 90
2019-04-08 02:00:00 13.1 7 Sudoeste 20 Sudoeste 0 992.7 -0.3 89
2019-04-08 01:00:00 13.2 7 Sudoeste 19 Sudoeste 0 992.9 0.5 88
2019-04-08 00:00:00 13.6 6 Sudoeste 22 Sudoeste 0 992.9 0.8 89
2019-04-07 23:00:00 13.8 6 Sudoeste 17 Sur 0 993 1.2 90
2019-04-07 22:00:00 13.6 4 Sudoeste 12 Oeste 0 992.4 0.8 93
2019-04-07 21:00:00 13.9 4 Sudoeste 14 Oeste 0 992.1 1 92
2019-04-07 20:00:00 14.3 5 Sudoeste 21 Sudoeste 0.2 991.8 0.3 91
2019-04-07 19:00:00 14.6 7 Sudoeste 24 Oeste 0.4 991.6 -0.5 89
2019-04-07 18:00:00 15.1 9 Sudoeste 24 Sur 0 991.1 -1.5 78
2019-04-07 17:00:00 14.4 13 Sur 28 Sudoeste 0 991.5 -1.2 77
2019-04-07 16:00:00 13.7 14 Sur 29 Sur 0 992.1 -0.7 78
2019-04-07 15:00:00 12.9 10 Sudoeste 22 Sudoeste 0.2 992.6 0.3 80
2019-04-07 14:00:00 12.8 7 Sudoeste 21 Oeste 0 992.7 0.6 85
2019-04-07 13:00:00 12.9 9 Sudoeste 23 Oeste 0 992.8 1.3 78
2019-04-07 12:00:00 13.6 8 Oeste 18 Sudoeste 0 992.3 1.2 70
2019-04-07 11:00:00 12.2 6 Sudoeste 16 Sudoeste 0 992.1 1.5 81
2019-04-07 10:00:00 10.6 6 Sudoeste 19 Sudoeste 0 991.5 1.6 86
2019-04-07 09:00:00 9.8 5 Sudoeste 18 Sudoeste 0 991.1 1.1 89
2019-04-07 08:00:00 9.4 5 Sudoeste 18 Oeste 0 990.6 1 91
2019-04-07 07:00:00 9.2 5 Sudoeste 17 Sudoeste 0 989.9 0.2 92
2019-04-07 06:00:00 8.9 8 Oeste 23 Noroeste 0 990 0.1 91
2019-04-07 05:00:00 9 8 Sudoeste 19 Oeste 0 989.6 0 91
2019-04-07 04:00:00 9.2 9 Sudoeste 27 Oeste 0.6 989.7 0.2 91
2019-04-07 03:00:00 9.4 10 Sudoeste 29 Oeste 0.2 989.9 0.5 92
2019-04-07 02:00:00 9.2 6 Sudoeste 22 Sudoeste 0.4 989.6 0.5 91
2019-04-07 01:00:00 9.3 9 Sudoeste 19 Oeste 0 989.5 0.9 88
2019-04-07 00:00:00 9.4 8 Oeste 13 Oeste 0.8 989.4 1.6 89
2019-04-06 23:00:00 9.9 6 Sudoeste 15 Oeste 0 989.1 1.9 79
2019-04-06 22:00:00 9.6 9 Oeste 31 Oeste 0 988.6 2.5 80
2019-04-06 21:00:00 11.3 16 Oeste 34 Oeste 0 987.8 2 70
2019-04-06 20:00:00 12.5 17 Oeste 37 Noroeste 0 987.2 1.6 61
2019-04-06 19:00:00 13.5 30 Noroeste 46 Noroeste 0 986.1 -0.2 52
2019-04-06 18:00:00 13.9 19 Oeste 42 Noroeste 0 985.8 -0.7 59
2019-04-06 17:00:00 13.9 21 Oeste 37 Oeste 0 985.6 0 55
2019-04-06 16:00:00 12.6 20 Oeste 62 Noroeste 0.6 986.3 0.5 73
2019-04-06 15:00:00 12.3 28 Noroeste 42 Noroeste 0 986.5 0.4 61
2019-04-06 14:00:00 12.8 14 Oeste 41 Oeste 0.2 985.6 -0.5 68
2019-04-06 13:00:00 14 20 Oeste 37 Oeste 0 985.8 0.2 57
2019-04-06 12:00:00 11.8 15 Oeste 36 Sudoeste 0 986.1 0.7 71
2019-04-06 11:00:00 10.3 14 Sudoeste 36 Oeste 0 986.1 1 76
2019-04-06 10:00:00 9.3 9 Sudoeste 30 Sudoeste 0 985.6 0.7 84
2019-04-06 09:00:00 8.4 9 Sudoeste 22 Sudoeste 0 985.4 0.7 88
2019-04-06 08:00:00 7.5 7 Sudoeste 20 Oeste 0 985.1 0.3 90
2019-04-06 07:00:00 7.7 6 Sudoeste 19 Sudoeste 0 984.9 0.1 90
2019-04-06 06:00:00 7.8 8 Sudoeste 21 Sudoeste 0.2 984.7 -0.3 91
2019-04-06 05:00:00 7.9 12 Sudoeste 25 Oeste 0 984.8 -0.4 90
2019-04-06 04:00:00 7.6 7 Sudoeste 21 Sudoeste 0 984.8 -0.3 91
2019-04-06 03:00:00 8 8 Sudoeste 22 Sudoeste 0 985 0.1 89
2019-04-06 02:00:00 7.9 6 Sudoeste 20 Oeste 0 985.2 0.5 89
2019-04-06 01:00:00 8 5 Sudoeste 17 Sudoeste 0 985.1 1.1 89
2019-04-06 00:00:00 8 6 Sudoeste 14 Sur 0 984.9 1.8 90
2019-04-05 23:00:00 7.9 9 Sudoeste 22 Oeste 0.2 984.7 2.5 87
2019-04-05 22:00:00 8.5 14 Oeste 31 Oeste 0.2 984 2.4 85
2019-04-05 21:00:00 9.2 9 Oeste 39 Oeste 0.2 983.1 2.1 81
2019-04-05 20:00:00 11 11 Oeste 28 Oeste 0 982.2 1.8 67
2019-04-05 19:00:00 10.9 17 Oeste 47 Noroeste 0 981.6 0.7 69
2019-04-05 18:00:00 11.9 11 Sudoeste 37 Oeste 0 981 -0.1 67
2019-04-05 17:00:00 14.3 13 Sudoeste 34 Oeste 0 980.4 -0.7 49
2019-04-05 16:00:00 12.2 17 Sudoeste 47 Oeste 0 980.9 -0.8 61
2019-04-05 15:00:00 10.4 15 Noroeste 37 Noroeste 0.4 981.1 -0.7 73
2019-04-05 14:00:00 12.7 12 Oeste 28 Oeste 0 981.1 0 55
2019-04-05 13:00:00 10.6 15 Oeste 33 Oeste 0 981.7 1.6 67
2019-04-05 12:00:00 9 11 Sudoeste 23 Oeste 0 981.8 2.4 76
2019-04-05 11:00:00 6.6 10 Oeste 26 Oeste 0 981.1 2.4 86
2019-04-05 10:00:00 5.7 20 Noroeste 59 Noroeste 0.8 980.1 1.6 87
2019-04-05 09:00:00 8.8 11 Oeste 22 Oeste 0 979.4 0.6 92
2019-04-05 08:00:00 8.7 6 Oeste 13 Oeste 0 978.7 -0.4 91
2019-04-05 07:00:00 9.2 5 Sudoeste 19 Oeste 0.6 978.5 -1 91
2019-04-05 06:00:00 9.2 8 Sudoeste 18 Sur 0 978.8 -1.8 87
2019-04-05 05:00:00 9.1 6 Sudoeste 19 Sudoeste 0 979.1 -2.1 86
2019-04-05 04:00:00 9.1 9 Sudoeste 29 Sudoeste 0.6 979.5 -2.1 88
2019-04-05 03:00:00 8.6 10 Sur 24 Sur 3.2 980.6 -1.4 93
2019-04-05 02:00:00 8.8 14 Sur 25 Sur 0.2 981.2 -1.1 86
2019-04-05 01:00:00 9 10 Sudoeste 23 Sudoeste 0.2 981.6 0.2 84
2019-04-05 00:00:00 9.3 6 Sudoeste 27 Oeste 0.4 982 0.8 87
2019-04-04 23:00:00 9.5 21 Oeste 39 Noroeste 0.2 982.3 1.1 81
2019-04-04 22:00:00 13.3 17 Oeste 35 Oeste 0 981.4 0.1 48
2019-04-04 21:00:00 14.2 17 Oeste 33 Oeste 0 981.2 -0.6 42
2019-04-04 20:00:00 15.7 16 Oeste 35 Oeste 0 981.2 -1 34
2019-04-04 19:00:00 16.7 18 Oeste 37 Oeste 0 981.3 -1.6 32
2019-04-04 18:00:00 18 14 Oeste 29 Noroeste 0 981.8 -2 24
2019-04-04 17:00:00 18.3 14 Oeste 31 Oeste 0 982.2 -2.4 24
2019-04-04 16:00:00 17.9 10 Oeste 22 Oeste 0 982.9 -2.4 23
2019-04-04 15:00:00 16.7 7 Sudoeste 22 Noroeste 0 983.8 -2 24
2019-04-04 14:00:00 15.4 10 Noroeste 24 Noroeste 0 984.6 -1.2 27
2019-04-04 13:00:00 13.8 14 Noroeste 24 Noroeste 0 985.3 -0.6 32
2019-04-04 12:00:00 12 14 Noroeste 27 Noroeste 0 985.8 0.1 37
2019-04-04 11:00:00 10.5 12 Norte 25 Norte 0 985.8 0.8 43
2019-04-04 10:00:00 7.8 9 Noroeste 15 Noroeste 0 985.9 1.3 54
2019-04-04 09:00:00 5.8 6 Oeste 11 Oeste 0 985.7 1.3 61
2019-04-04 08:00:00 4.7 3 Sudoeste 14 Oeste 0 985 0.3 65
2019-04-04 07:00:00 5.6 9 Oeste 14 Noroeste 0 984.6 -0.2 58
2019-04-04 06:00:00 5.8 11 Oeste 18 Oeste 0 984.4 -0.7 58
2019-04-04 05:00:00 7 9 Oeste 14 Noroeste 0 984.7 -0.8 55
2019-04-04 04:00:00 7.8 5 Oeste 15 Noroeste 0 984.8 -1.1 58
2019-04-04 03:00:00 7.1 10 Oeste 18 Oeste 0 985.1 -0.7 72
2019-04-04 02:00:00 8 11 Oeste 17 Oeste 0 985.5 0 69
2019-04-04 01:00:00 9.2 14 Noroeste 22 Noroeste 0 985.9 1.1 64
2019-04-04 00:00:00 10.2 15 Noroeste 27 Noroeste 0 985.8 1.7 58
2019-04-03 23:00:00 11.5 19 Noroeste 30 Noroeste 0 985.5 1.5 54
2019-04-03 22:00:00 13 18 Oeste 30 Oeste 0 984.8 0.6 49
2019-04-03 21:00:00 15.3 17 Oeste 31 Oeste 0 984.1 -0.6 41
2019-04-03 20:00:00 17.8 19 Oeste 32 Noroeste 0 984 -1.3 33
2019-04-03 19:00:00 19.3 13 Oeste 26 Noroeste 0 984.2 -2.1 32
2019-04-03 18:00:00 18.2 16 Noroeste 27 Noroeste 0 984.7 -2 39
2019-04-03 17:00:00 18.6 12 Oeste 31 Noroeste 0 985.3 -2 38
2019-04-03 16:00:00 17.9 18 Noroeste 33 Noroeste 0 986.3 -1.8 42
2019-04-03 15:00:00 17.7 15 Oeste 33 Noroeste 0 986.7 -2.1 43
2019-04-03 14:00:00 17.3 17 Noroeste 32 Noroeste 0 987.3 -1.8 40
2019-04-03 13:00:00 15.7 11 Oeste 22 Noroeste 0 988.1 -1.4 53
2019-04-03 12:00:00 13.3 12 Oeste 27 Noroeste 0 988.8 -0.9 61
2019-04-03 11:00:00 11.5 12 Oeste 23 Oeste 0 989.1 -0.7 71
2019-04-03 10:00:00 9.9 12 Oeste 21 Oeste 0 989.5 -0.6 81
2019-04-03 09:00:00 7.4 5 Oeste 12 Oeste 0 989.7 -0.8 90
2019-04-03 08:00:00 7.2 7 Oeste 15 Oeste 0 989.8 -1.1 91
2019-04-03 07:00:00 7.8 6 Sudoeste 18 Oeste 0 990.1 -1.2 90
2019-04-03 06:00:00 8.9 9 Oeste 17 Oeste 0 990.5 -1.3 86
2019-04-03 05:00:00 9.7 9 Oeste 19 Oeste 0 990.9 -1.5 85
2019-04-03 04:00:00 10.4 8 Oeste 15 Oeste 0 991.3 -1.5 82
2019-04-03 03:00:00 11.3 9 Oeste 17 Sudoeste 0 991.8 -1 81
2019-04-03 02:00:00 12.6 10 Oeste 18 Oeste 0 992.4 0 78
2019-04-03 01:00:00 13.7 11 Oeste 18 Oeste 0 992.8 0.4 74
2019-04-03 00:00:00 14.9 9 Oeste 16 Oeste 0 992.8 0.8 67
2019-04-02 23:00:00 15 5 Sudoeste 12 Oeste 0 992.4 0.5 65
2019-04-02 22:00:00 16.6 5 Sudoeste 16 Oeste 0 992.4 0.4 56
2019-04-02 21:00:00 18.3 9 Oeste 23 Oeste 0 992 -0.1 45
2019-04-02 20:00:00 21.1 14 Oeste 30 Noroeste 0 991.9 -0.8 35
2019-04-02 19:00:00 22.2 16 Oeste 27 Noroeste 0 992 -1.2 33
2019-04-02 18:00:00 22.6 12 Oeste 27 Oeste 0 992.1 -1.9 32
2019-04-02 17:00:00 23.2 9 Oeste 24 Noroeste 0 992.7 -2 32
2019-04-02 16:00:00 22.3 5 Sur 17 Sudoeste 0 993.2 -2.3 38
2019-04-02 15:00:00 21.3 6 Oeste 15 Noroeste 0 994 -1.9 39
2019-04-02 14:00:00 19.5 5 Oeste 12 Oeste 0 994.7 -1.3 48
2019-04-02 13:00:00 16.6 4 Oeste 12 Noroeste 0 995.5 -0.3 67
2019-04-02 12:00:00 12.5 3 Oeste 10 Noroeste 0 995.9 0.8 89
2019-04-02 11:00:00 9.9 4 Oeste 9 Oeste 0 996 1.4 99
2019-04-02 10:00:00 7.9 4 Oeste 6 Oeste 0 995.8 1.6 99
2019-04-02 09:00:00 6.6 3 Este 4 Sudeste 0 995.1 0.7 99
2019-04-02 08:00:00 6 2 Este 8 Norte 0 994.6 0.2 98
2019-04-02 07:00:00 6.9 0 Calma 7 Noroeste 0 994.2 -0.4 97
2019-04-02 06:00:00 7.3 0 Calma 5 Sudoeste 0 994.4 -0.5 96
2019-04-02 05:00:00 7.8 0 Calma 5 Sur 0 994.4 -0.5 95
2019-04-02 04:00:00 8.2 3 Este 10 Norte 0 994.6 0.1 95
2019-04-02 03:00:00 9.7 5 Sur 7 Sur 0 994.9 0.7 95
2019-04-02 02:00:00 9.4 4 Norte 7 Norte 0 994.9 0.9 93
2019-04-02 01:00:00 11 3 Sudoeste 6 Sur 0 994.5 0.9 93
2019-04-02 00:00:00 11.3 2 Sur 8 Oeste 0 994.2 1.4 91
2019-04-01 23:00:00 12.6 3 Sudoeste 10 Sudoeste 0 994 1.6 87
2019-04-01 22:00:00 12.8 3 Sur 10 Sur 0 993.6 2 86
2019-04-01 21:00:00 13.8 4 Sudeste 13 Sur 0 992.8 1.8 81
2019-04-01 20:00:00 15.7 10 Sudeste 20 Sudeste 0 992.4 1.6 72
2019-04-01 19:00:00 17.3 16 Noroeste 32 Noroeste 0 991.6 1.3 52
2019-04-01 18:00:00 17.7 27 Noroeste 42 Noroeste 0 991 -0.7 56
2019-04-01 17:00:00 19.7 10 Norte 23 Norte 0 990.8 -0.8 57
2019-04-01 16:00:00 17.9 5 Nordeste 17 Sur 0.6 990.3 -1.9 55
2019-04-01 15:00:00 14.2 13 Sur 22 Sur 0.6 991.7 -0.4 78
2019-04-01 14:00:00 17.8 10 Este 19 Nordeste 0 991.6 -0.1 63
2019-04-01 13:00:00 17.4 6 Nordeste 12 Nordeste 0 992.2 0.9 66
2019-04-01 12:00:00 16.5 4 Norte 9 Este 0 992.1 1.3 72
2019-04-01 11:00:00 16 6 Sudeste 16 Este 0 991.7 1.3 74
2019-04-01 10:00:00 13.3 12 Este 14 Este 0 991.3 1.3 92
2019-04-01 09:00:00 11.8 6 Este 9 Este 0 990.8 1.1 95
2019-04-01 08:00:00 12.4 3 Este 9 Este 0 990.4 0.4 93
2019-04-01 07:00:00 12.2 6 Este 13 Este 0.2 990 -0.3 94
2019-04-01 06:00:00 12.1 8 Nordeste 12 Nordeste 0.4 989.7 -0.8 94
2019-04-01 05:00:00 12.4 0 Calma 5 Este 0.4 990 -0.4 89
2019-04-01 04:00:00 12.5 4 Noroeste 7 Oeste 0 990.3 0.1 85
2019-04-01 03:00:00 13 2 Sur 7 Sudeste 0 990.5 0.5 83
2019-04-01 02:00:00 13.1 3 Sur 8 Este 0 990.4 0.7 82
2019-04-01 01:00:00 13.1 5 Sudeste 10 Este 0 990.2 0.8 83
2019-04-01 00:00:00 13 6 Norte 13 Norte 0 990 0.9 84
2019-03-31 23:00:00 13.2 8 Noroeste 14 Noroeste 0 989.7 1.5 81
2019-03-31 22:00:00 13.4 8 Sudoeste 28 Sur 0 989.4 2.3 82
2019-03-31 21:00:00 15 17 Sur 39 Sur 0 989.1 1.9 73
2019-03-31 20:00:00 17.4 19 Sudeste 44 Este 0 988.2 0.5 56
2019-03-31 19:00:00 21.9 13 Este 22 Este 0 987.1 -1.3 36
2019-03-31 18:00:00 21.7 11 Norte 21 Nordeste 0 987.2 -2.2 38
2019-03-31 17:00:00 21.4 15 Nordeste 25 Nordeste 0 987.7 -2.4 42
2019-03-31 16:00:00 21.2 8 Nordeste 22 Nordeste 0 988.4 -2.3 44
2019-03-31 15:00:00 19.6 5 Oeste 21 Nordeste 0 989.4 -1.6 50
2019-03-31 14:00:00 20.1 15 Nordeste 24 Nordeste 0 990.1 -0.9 49
2019-03-31 13:00:00 19.2 7 Nordeste 13 Este 0 990.7 -0.2 53
2019-03-31 12:00:00 17.7 4 Noroeste 10 Oeste 0 991 0.2 61
2019-03-31 11:00:00 15.7 3 Sudoeste 8 Noroeste 0 991 0.5 71
2019-03-31 10:00:00 12.1 3 Oeste 7 Oeste 0 990.9 0.7 82
2019-03-31 09:00:00 9 3 Sudoeste 5 Sudoeste 0 990.8 0.3 89
2019-03-31 08:00:00 8.3 2 Sur 6 Sur 0 990.5 -0.4 90
2019-03-31 07:00:00 8.5 4 Norte 10 Sudoeste 0 990.2 -1.1 85
2019-03-31 06:00:00 10.3 3 Sudoeste 8 Sur 0 990.5 -0.9 85
2019-03-31 05:00:00 10.6 6 Sur 12 Sur 0 990.9 -1 85
2019-03-31 03:00:00 12.8 3 Sudoeste 12 Noroeste 0 991.4 -1.3 79
2019-03-31 01:00:00 13.9 9 Noroeste 17 Sudeste 0 991.9 -1.2 77
2019-03-31 00:00:00 15.6 7 Sur 24 Sudeste 0 992.5 0.1 57
2019-03-30 23:00:00 15.5 19 Sudeste 43 Sur 0 992.7 1.6 59
2019-03-30 22:00:00 16.4 15 Sur 34 Sur 0 993.1 2 56
2019-03-30 21:00:00 17.7 21 Sur 39 Sudeste 0 992.4 1.1 50
2019-03-30 20:00:00 19 8 Nordeste 19 Nordeste 0 991.1 -0.6 36
2019-03-30 19:00:00 21.9 14 Nordeste 24 Nordeste 0 991.1 -1 30
2019-03-30 18:00:00 22.9 16 Nordeste 25 Este 0 991.3 -1.9 29
2019-03-30 17:00:00 23.6 15 Este 29 Nordeste 0 991.7 -2.4 27
2019-03-30 16:00:00 23.2 15 Este 35 Este 0 992.1 -3 29
2019-03-30 15:00:00 23 19 Este 37 Este 0 993.2 -2.9 30
2019-03-30 14:00:00 22.2 15 Este 33 Este 0 994.1 -2.6 33
2019-03-30 13:00:00 21 18 Este 31 Este 0 995.1 -1.7 36
2019-03-30 12:00:00 19 18 Este 33 Nordeste 0 996.1 -0.7 41
2019-03-30 11:00:00 17.2 17 Este 30 Este 0 996.7 0.1 49
2019-03-30 10:00:00 15.3 16 Este 26 Este 0 996.8 0.3 54
2019-03-30 09:00:00 11.8 13 Este 19 Este 0 996.8 0.3 62
2019-03-30 08:00:00 8.4 5 Este 6 Nordeste 0 996.6 -0.1 69
2019-03-30 07:00:00 8.2 3 Este 5 Este 0 996.5 -0.4 65
2019-03-30 06:00:00 8.9 4 Nordeste 6 Nordeste 0 996.5 -0.3 60
2019-03-30 05:00:00 10.3 3 Nordeste 5 Nordeste 0 996.7 -0.4 57
2019-03-30 04:00:00 10.3 4 Sudeste 12 Este 0 996.9 -0.1 59
2019-03-30 03:00:00 11.9 5 Oeste 12 Sur 0 996.8 -0.2 60
2019-03-30 02:00:00 11.1 5 Sur 12 Sur 0 997.1 -0.1 49
2019-03-30 01:00:00 10.5 5 Sudeste 12 Sur 0 997 -0.2 43
2019-03-30 00:00:00 11.4 5 Este 8 Nordeste 0 997 0.2 40
2019-03-29 23:00:00 12.7 5 Nordeste 8 Nordeste 0 997.2 0.8 37
2019-03-29 22:00:00 14.2 5 Nordeste 8 Nordeste 0 997.2 0.9 33
2019-03-29 21:00:00 15.8 5 Nordeste 11 Nordeste 0 996.8 0.5 29
2019-03-29 20:00:00 17.3 9 Nordeste 18 Nordeste 0 996.4 -0.2 25
2019-03-29 19:00:00 20.4 12 Nordeste 21 Nordeste 0 996.3 -0.8 20
2019-03-29 18:00:00 21.7 15 Nordeste 31 Norte 0 996.3 -1.6 18
2019-03-29 17:00:00 22.5 13 Nordeste 25 Nordeste 0 996.6 -2.3 17
2019-03-29 16:00:00 22.5 17 Nordeste 31 Este 0 997.1 -2.4 18
2019-03-29 15:00:00 21.4 13 Nordeste 31 Nordeste 0 997.9 -2.3 19
2019-03-29 14:00:00 21.4 14 Este 26 Este 0 998.9 -1.8 19
2019-03-29 13:00:00 20.3 14 Este 24 Nordeste 0 999.5 -1.5 22
2019-03-29 12:00:00 19 19 Este 28 Este 0 1000.2 -0.8 24
2019-03-29 11:00:00 16.9 19 Este 29 Este 0 1000.7 -0.1 30
2019-03-29 10:00:00 14.2 16 Este 21 Este 0 1001 0.4 44
2019-03-29 09:00:00 9.8 11 Este 17 Este 0 1001 0.9 51
2019-03-29 08:00:00 5.3 8 Este 10 Este 0 1000.8 1.1 67
2019-03-29 07:00:00 4.2 0 Calma 4 Sudeste 0 1000.6 1 67
2019-03-29 06:00:00 4.6 3 Sudeste 5 Este 0 1000.1 0.4 64
2019-03-29 05:00:00 4.9 3 Sudeste 12 Este 0 999.7 0.1 59
2019-03-29 04:00:00 5.1 4 Nordeste 13 Este 0 999.6 0 56
2019-03-29 03:00:00 5.4 5 Este 10 Sudeste 0 999.7 -0.1 58
2019-03-29 02:00:00 7.5 3 Sudoeste 5 Sur 0 999.6 -0.3 54
2019-03-29 01:00:00 7.9 0 Calma 8 Noroeste 0 999.6 0 50
2019-03-29 00:00:00 10.5 2 Sudeste 4 Sudoeste 0 999.8 0.5 39
2019-03-28 23:00:00 11.7 0 Calma 12 Sur 0 999.9 0.9 31
2019-03-28 22:00:00 14.9 9 Sur 15 Sur 0 999.6 0.8 23
2019-03-28 21:00:00 15.7 6 Sudeste 10 Este 0 999.3 0.7 27
2019-03-28 20:00:00 17.7 11 Este 23 Este 0 999 0.2 20
2019-03-28 19:00:00 21.4 19 Este 32 Este 0 998.8 -0.6 13
2019-03-28 18:00:00 22.6 18 Este 37 Este 0 998.6 -1.4 15
2019-03-28 17:00:00 23.1 22 Este 41 Este 0 998.8 -2.1 15
2019-03-28 16:00:00 23.1 26 Este 39 Este 0 999.4 -2.5 14
2019-03-28 15:00:00 22.7 24 Este 42 Este 0 1000 -2.6 13
2019-03-28 14:00:00 22 21 Este 37 Nordeste 0 1000.9 -2.3 20
2019-03-28 13:00:00 20.5 19 Este 35 Este 0 1001.9 -1.3 31
2019-03-28 12:00:00 19.1 17 Este 28 Este 0 1002.6 -0.7 33
2019-03-28 11:00:00 16.1 10 Este 19 Este 0 1003.2 0.5 46
2019-03-28 10:00:00 13.1 9 Este 14 Este 0 1003.2 1.1 48
2019-03-28 09:00:00 8.1 8 Este 11 Este 0 1003.3 1.4 51
2019-03-28 08:00:00 4.6 6 Este 9 Este 0 1002.7 1.1 72
2019-03-28 07:00:00 4.9 5 Sudeste 10 Sudeste 0 1002.1 0.5 65
2019-03-28 06:00:00 4.6 8 Este 9 Este 0 1001.9 0.6 70
2019-03-28 05:00:00 6.1 2 Este 10 Sur 0 1001.6 0.2 68
2019-03-28 04:00:00 7.8 5 Sudeste 8 Sudeste 0 1001.6 0.5 67
2019-03-28 03:00:00 7.8 6 Este 7 Sudeste 0 1001.3 0.5 61
2019-03-28 02:00:00 9.9 5 Oeste 12 Sudoeste 0 1001.4 1.1 52
2019-03-28 01:00:00 9.8 5 Sudeste 9 Este 0 1001.1 1.3 51
2019-03-28 00:00:00 11.2 2 Nordeste 6 Este 0 1000.8 1.6 50
2019-03-27 23:00:00 12.6 0 Calma 4 Noroeste 0 1000.3 1.8 47
2019-03-27 22:00:00 14.4 2 Nordeste 8 Este 0 999.8 1.7 37
2019-03-27 21:00:00 16.4 5 Nordeste 13 Nordeste 0 999.2 1.3 27
2019-03-27 20:00:00 18.4 12 Este 29 Nordeste 0 998.5 0.4 22
2019-03-27 19:00:00 21.2 22 Nordeste 33 Nordeste 0 998.1 -0.4 18
2019-03-27 18:00:00 22.2 21 Nordeste 36 Nordeste 0 997.9 -1 18
2019-03-27 17:00:00 22.5 28 Nordeste 41 Nordeste 0 998.1 -1.5 17
2019-03-27 16:00:00 22.5 26 Este 42 Este 0 998.5 -1.4 17
2019-03-27 15:00:00 22.3 27 Este 44 Este 0 998.9 -1.2 18
2019-03-27 14:00:00 21.6 27 Este 41 Este 0 999.6 -0.7 20
2019-03-27 13:00:00 20.2 24 Este 42 Este 0 999.9 0 25
2019-03-27 12:00:00 18.8 25 Nordeste 40 Este 0 1000.1 0.5 30
2019-03-27 11:00:00 17.1 29 Este 39 Este 0 1000.3 1.6 35
2019-03-27 10:00:00 15 28 Este 41 Este 0 999.9 2.4 42
2019-03-27 09:00:00 12.8 27 Este 37 Este 0 999.6 3 48
2019-03-27 08:00:00 10.6 18 Este 27 Este 0 998.7 2.6 54
2019-03-27 07:00:00 11.1 19 Este 37 Este 0 997.5 1.8 53
2019-03-27 06:00:00 11.5 21 Este 31 Este 0 996.6 1.4 52
2019-03-27 05:00:00 12.1 19 Este 25 Este 0 996.1 1.6 50
2019-03-27 04:00:00 12.9 13 Este 27 Este 0 995.7 1.8 50
2019-03-27 03:00:00 14.6 21 Este 37 Este 0 995.2 1.9 46
2019-03-27 02:00:00 15.5 19 Este 36 Este 0 994.5 1.7 43
2019-03-27 01:00:00 15 16 Este 21 Este 0 993.9 1.5 42
2019-03-27 00:00:00 15 12 Este 19 Este 0 993.3 1.7 39